sensor_id;sensor_type;location;lat;lon;timestamp;temperature;humidity
16158;DHT22;8184;60.256;18.694;2023-04-01T00:01:01;-4.40;99.90
16158;DHT22;8184;60.256;18.694;2023-04-01T00:03:30;-4.40;99.90
16158;DHT22;8184;60.256;18.694;2023-04-01T00:06:01;-4.40;99.90
16158;DHT22;8184;60.256;18.694;2023-04-01T00:08:30;-4.60;99.90
16158;DHT22;8184;60.256;18.694;2023-04-01T00:10:58;-4.70;99.90
16158;DHT22;8184;60.256;18.694;2023-04-01T00:13:26;-4.60;99.90
16158;DHT22;8184;60.256;18.694;2023-04-01T00:15:55;-4.50;99.90
16158;DHT22;8184;60.256;18.694;2023-04-01T00:18:25;-4.60;99.90
16158;DHT22;8184;60.256;18.694;2023-04-01T00:20:54;-4.70;99.90
16158;DHT22;8184;60.256;18.694;2023-04-01T00:23:23;-5.00;99.90
16158;DHT22;8184;60.256;18.694;2023-04-01T00:25:52;-5.00;99.90
16158;DHT22;8184;60.256;18.694;2023-04-01T00:28:20;-5.20;99.90
16158;DHT22;8184;60.256;18.694;2023-04-01T00:30:48;-4.90;99.90
16158;DHT22;8184;60.256;18.694;2023-04-01T00:33:16;-4.90;99.90
16158;DHT22;8184;60.256;18.694;2023-04-01T00:35:45;-4.30;99.90
16158;DHT22;8184;60.256;18.694;2023-04-01T00:38:13;-4.30;99.90
16158;DHT22;8184;60.256;18.694;2023-04-01T00:40:45;-3.70;99.90
16158;DHT22;8184;60.256;18.694;2023-04-01T00:43:17;-3.60;99.90
16158;DHT22;8184;60.256;18.694;2023-04-01T00:45:47;-3.20;99.90
16158;DHT22;8184;60.256;18.694;2023-04-01T00:48:16;-3.30;99.90
16158;DHT22;8184;60.256;18.694;2023-04-01T00:50:46;-3.10;99.90
16158;DHT22;8184;60.256;18.694;2023-04-01T00:53:16;-3.00;99.90
16158;DHT22;8184;60.256;18.694;2023-04-01T00:55:48;-2.70;99.90
16158;DHT22;8184;60.256;18.694;2023-04-01T00:58:21;-2.90;99.90
16158;DHT22;8184;60.256;18.694;2023-04-01T01:00:51;-3.00;99.90
16158;DHT22;8184;60.256;18.694;2023-04-01T01:03:22;-2.50;99.90
16158;DHT22;8184;60.256;18.694;2023-04-01T01:05:59;-2.70;99.90
16158;DHT22;8184;60.256;18.694;2023-04-01T01:08:50;-2.80;99.90
16158;DHT22;8184;60.256;18.694;2023-04-01T01:11:22;-2.90;99.90
16158;DHT22;8184;60.256;18.694;2023-04-01T01:13:55;-3.00;99.90
16158;DHT22;8184;60.256;18.694;2023-04-01T01:16:25;-2.80;99.90
16158;DHT22;8184;60.256;18.694;2023-04-01T01:18:56;-2.80;99.90
16158;DHT22;8184;60.256;18.694;2023-04-01T01:21:40;-2.40;99.90
16158;DHT22;8184;60.256;18.694;2023-04-01T01:24:17;-2.50;99.90
16158;DHT22;8184;60.256;18.694;2023-04-01T01:26:53;-2.50;99.90
16158;DHT22;8184;60.256;18.694;2023-04-01T01:29:30;-2.60;99.90
16158;DHT22;8184;60.256;18.694;2023-04-01T01:32:02;-2.50;99.90
16158;DHT22;8184;60.256;18.694;2023-04-01T01:34:31;-2.70;99.90
16158;DHT22;8184;60.256;18.694;2023-04-01T01:37:05;-2.20;99.90
16158;DHT22;8184;60.256;18.694;2023-04-01T01:39:35;-2.40;99.90
16158;DHT22;8184;60.256;18.694;2023-04-01T01:42:04;-2.10;99.90
16158;DHT22;8184;60.256;18.694;2023-04-01T01:44:34;-2.10;99.90
16158;DHT22;8184;60.256;18.694;2023-04-01T01:47:03;-2.20;99.90
16158;DHT22;8184;60.256;18.694;2023-04-01T01:49:32;-2.00;99.90
16158;DHT22;8184;60.256;18.694;2023-04-01T01:52:03;-1.70;99.90
16158;DHT22;8184;60.256;18.694;2023-04-01T01:54:34;-1.70;99.90
16158;DHT22;8184;60.256;18.694;2023-04-01T01:57:06;-1.70;99.90
16158;DHT22;8184;60.256;18.694;2023-04-01T01:59:35;-1.50;99.90
16158;DHT22;8184;60.256;18.694;2023-04-01T02:02:04;-1.30;99.90
16158;DHT22;8184;60.256;18.694;2023-04-01T02:04:34;-1.30;99.90
16158;DHT22;8184;60.256;18.694;2023-04-01T02:07:04;-1.40;99.90
16158;DHT22;8184;60.256;18.694;2023-04-01T02:09:34;-1.50;99.90
16158;DHT22;8184;60.256;18.694;2023-04-01T02:12:04;-1.30;99.90
16158;DHT22;8184;60.256;18.694;2023-04-01T02:14:35;-1.40;99.90
16158;DHT22;8184;60.256;18.694;2023-04-01T02:17:05;-1.40;99.90
16158;DHT22;8184;60.256;18.694;2023-04-01T02:19:36;-1.40;99.90
16158;DHT22;8184;60.256;18.694;2023-04-01T02:22:05;-1.30;99.90
16158;DHT22;8184;60.256;18.694;2023-04-01T02:24:37;-1.30;99.90
16158;DHT22;8184;60.256;18.694;2023-04-01T02:27:06;-1.30;99.90
16158;DHT22;8184;60.256;18.694;2023-04-01T02:29:35;-1.30;99.90
16158;DHT22;8184;60.256;18.694;2023-04-01T02:32:03;-1.30;99.90
16158;DHT22;8184;60.256;18.694;2023-04-01T02:34:32;-1.30;99.90
16158;DHT22;8184;60.256;18.694;2023-04-01T02:37:00;-1.30;99.90
16158;DHT22;8184;60.256;18.694;2023-04-01T02:39:29;-1.40;99.90
16158;DHT22;8184;60.256;18.694;2023-04-01T02:41:59;-1.30;99.90
16158;DHT22;8184;60.256;18.694;2023-04-01T02:44:27;-1.20;99.90
16158;DHT22;8184;60.256;18.694;2023-04-01T02:46:56;-1.40;99.90
16158;DHT22;8184;60.256;18.694;2023-04-01T02:49:24;-1.40;99.90
16158;DHT22;8184;60.256;18.694;2023-04-01T02:51:54;-1.30;99.90
16158;DHT22;8184;60.256;18.694;2023-04-01T02:54:22;-1.50;99.90
16158;DHT22;8184;60.256;18.694;2023-04-01T02:56:51;-1.50;99.90
16158;DHT22;8184;60.256;18.694;2023-04-01T02:59:21;-1.30;99.90
16158;DHT22;8184;60.256;18.694;2023-04-01T03:01:49;-1.50;99.90
16158;DHT22;8184;60.256;18.694;2023-04-01T03:04:17;-1.40;99.90
16158;DHT22;8184;60.256;18.694;2023-04-01T03:06:45;-1.30;99.90
16158;DHT22;8184;60.256;18.694;2023-04-01T03:09:13;-1.40;99.90
16158;DHT22;8184;60.256;18.694;2023-04-01T03:11:42;-1.70;99.90
16158;DHT22;8184;60.256;18.694;2023-04-01T03:14:11;-1.60;99.90
16158;DHT22;8184;60.256;18.694;2023-04-01T03:16:40;-1.60;99.90
16158;DHT22;8184;60.256;18.694;2023-04-01T03:19:15;-1.60;99.90
16158;DHT22;8184;60.256;18.694;2023-04-01T03:21:43;-1.60;99.90
16158;DHT22;8184;60.256;18.694;2023-04-01T03:24:11;-1.50;99.90
16158;DHT22;8184;60.256;18.694;2023-04-01T03:26:39;-1.50;99.90
16158;DHT22;8184;60.256;18.694;2023-04-01T03:29:08;-1.70;99.90
16158;DHT22;8184;60.256;18.694;2023-04-01T03:31:38;-1.90;99.90
16158;DHT22;8184;60.256;18.694;2023-04-01T03:34:08;-1.70;99.90
16158;DHT22;8184;60.256;18.694;2023-04-01T03:36:36;-1.60;99.90
16158;DHT22;8184;60.256;18.694;2023-04-01T03:39:05;-1.70;99.90
16158;DHT22;8184;60.256;18.694;2023-04-01T03:41:34;-1.80;99.90
16158;DHT22;8184;60.256;18.694;2023-04-01T03:44:03;-1.70;99.90
16158;DHT22;8184;60.256;18.694;2023-04-01T03:46:31;-1.90;99.90
16158;DHT22;8184;60.256;18.694;2023-04-01T03:48:59;-1.80;99.90
16158;DHT22;8184;60.256;18.694;2023-04-01T03:51:29;-1.80;99.90
16158;DHT22;8184;60.256;18.694;2023-04-01T03:53:57;-1.90;99.90
16158;DHT22;8184;60.256;18.694;2023-04-01T03:56:25;-1.80;99.90
16158;DHT22;8184;60.256;18.694;2023-04-01T03:58:53;-1.60;99.90
16158;DHT22;8184;60.256;18.694;2023-04-01T04:01:24;-1.80;99.90
16158;DHT22;8184;60.256;18.694;2023-04-01T04:03:52;-1.80;99.90
16158;DHT22;8184;60.256;18.694;2023-04-01T04:06:21;-2.00;99.90
16158;DHT22;8184;60.256;18.694;2023-04-01T04:08:51;-1.80;99.90
16158;DHT22;8184;60.256;18.694;2023-04-01T04:11:20;-1.60;99.90
16158;DHT22;8184;60.256;18.694;2023-04-01T04:13:49;-1.70;99.90
16158;DHT22;8184;60.256;18.694;2023-04-01T04:16:18;-1.70;99.90
16158;DHT22;8184;60.256;18.694;2023-04-01T04:18:47;-1.80;99.90
16158;DHT22;8184;60.256;18.694;2023-04-01T04:21:15;-1.60;99.90
16158;DHT22;8184;60.256;18.694;2023-04-01T04:23:44;-1.50;99.90
16158;DHT22;8184;60.256;18.694;2023-04-01T04:26:14;-1.50;99.90
16158;DHT22;8184;60.256;18.694;2023-04-01T04:28:42;-1.50;99.90
16158;DHT22;8184;60.256;18.694;2023-04-01T04:31:10;-1.50;99.90
16158;DHT22;8184;60.256;18.694;2023-04-01T04:33:39;-1.60;99.90
16158;DHT22;8184;60.256;18.694;2023-04-01T04:36:07;-1.50;99.90
16158;DHT22;8184;60.256;18.694;2023-04-01T04:38:36;-1.60;99.90
16158;DHT22;8184;60.256;18.694;2023-04-01T04:41:08;-1.70;99.90
16158;DHT22;8184;60.256;18.694;2023-04-01T04:43:47;-1.70;99.90
16158;DHT22;8184;60.256;18.694;2023-04-01T04:46:16;-1.70;99.90
16158;DHT22;8184;60.256;18.694;2023-04-01T04:48:44;-1.60;99.90
16158;DHT22;8184;60.256;18.694;2023-04-01T04:51:13;-1.70;99.90
16158;DHT22;8184;60.256;18.694;2023-04-01T04:53:42;-1.70;99.90
16158;DHT22;8184;60.256;18.694;2023-04-01T04:56:10;-1.70;99.90
16158;DHT22;8184;60.256;18.694;2023-04-01T04:58:39;-1.60;99.90
16158;DHT22;8184;60.256;18.694;2023-04-01T05:01:10;-1.50;99.90
16158;DHT22;8184;60.256;18.694;2023-04-01T05:03:38;-1.30;99.90
16158;DHT22;8184;60.256;18.694;2023-04-01T05:06:08;-1.30;99.90
16158;DHT22;8184;60.256;18.694;2023-04-01T05:08:37;-1.10;99.90
16158;DHT22;8184;60.256;18.694;2023-04-01T05:11:06;-1.10;99.90
16158;DHT22;8184;60.256;18.694;2023-04-01T05:13:36;-1.10;99.90
16158;DHT22;8184;60.256;18.694;2023-04-01T05:16:07;-0.80;99.90
16158;DHT22;8184;60.256;18.694;2023-04-01T05:18:37;-0.90;99.90
16158;DHT22;8184;60.256;18.694;2023-04-01T05:21:06;-0.90;99.90
16158;DHT22;8184;60.256;18.694;2023-04-01T05:23:34;-0.90;99.90
16158;DHT22;8184;60.256;18.694;2023-04-01T05:26:06;-0.60;99.90
16158;DHT22;8184;60.256;18.694;2023-04-01T05:28:35;-0.40;99.90
16158;DHT22;8184;60.256;18.694;2023-04-01T05:31:03;-0.50;99.90
16158;DHT22;8184;60.256;18.694;2023-04-01T05:33:31;-0.50;99.90
16158;DHT22;8184;60.256;18.694;2023-04-01T05:36:07;-0.40;99.90
16158;DHT22;8184;60.256;18.694;2023-04-01T05:38:35;-0.30;99.90
16158;DHT22;8184;60.256;18.694;2023-04-01T05:41:03;-0.30;99.90
16158;DHT22;8184;60.256;18.694;2023-04-01T05:43:32;-0.30;99.90
16158;DHT22;8184;60.256;18.694;2023-04-01T05:46:00;-0.20;99.90
16158;DHT22;8184;60.256;18.694;2023-04-01T05:48:28;-0.10;99.90
16158;DHT22;8184;60.256;18.694;2023-04-01T05:50:57;-0.10;99.90
16158;DHT22;8184;60.256;18.694;2023-04-01T05:53:26;0.00;99.90
16158;DHT22;8184;60.256;18.694;2023-04-01T05:55:55;0.20;99.90
16158;DHT22;8184;60.256;18.694;2023-04-01T05:58:23;0.30;99.90
16158;DHT22;8184;60.256;18.694;2023-04-01T06:00:53;0.40;99.90
16158;DHT22;8184;60.256;18.694;2023-04-01T06:03:38;0.50;99.90
16158;DHT22;8184;60.256;18.694;2023-04-01T06:06:09;0.50;99.90
16158;DHT22;8184;60.256;18.694;2023-04-01T06:08:43;0.70;99.90
16158;DHT22;8184;60.256;18.694;2023-04-01T06:11:16;0.80;99.90
16158;DHT22;8184;60.256;18.694;2023-04-01T06:13:49;0.80;99.90
16158;DHT22;8184;60.256;18.694;2023-04-01T06:16:21;1.00;99.90
16158;DHT22;8184;60.256;18.694;2023-04-01T06:18:55;1.00;99.90
16158;DHT22;8184;60.256;18.694;2023-04-01T06:24:22;1.30;99.90
16158;DHT22;8184;60.256;18.694;2023-04-01T06:26:54;1.40;99.90
16158;DHT22;8184;60.256;18.694;2023-04-01T06:29:34;1.40;99.90
16158;DHT22;8184;60.256;18.694;2023-04-01T06:32:11;1.40;99.90
16158;DHT22;8184;60.256;18.694;2023-04-01T06:34:49;1.50;99.90
16158;DHT22;8184;60.256;18.694;2023-04-01T06:37:22;1.60;99.90
16158;DHT22;8184;60.256;18.694;2023-04-01T06:39:57;1.70;99.90
16158;DHT22;8184;60.256;18.694;2023-04-01T06:42:36;1.60;99.90
16158;DHT22;8184;60.256;18.694;2023-04-01T06:45:11;1.70;99.90
16158;DHT22;8184;60.256;18.694;2023-04-01T06:47:49;1.80;99.90
16158;DHT22;8184;60.256;18.694;2023-04-01T06:50:20;1.80;99.90
16158;DHT22;8184;60.256;18.694;2023-04-01T06:52:55;2.00;99.90
16158;DHT22;8184;60.256;18.694;2023-04-01T06:55:27;2.10;99.90
16158;DHT22;8184;60.256;18.694;2023-04-01T06:57:56;2.20;99.90
16158;DHT22;8184;60.256;18.694;2023-04-01T07:00:27;2.40;99.90
16158;DHT22;8184;60.256;18.694;2023-04-01T07:02:59;2.20;99.90
16158;DHT22;8184;60.256;18.694;2023-04-01T07:05:33;2.10;99.90
16158;DHT22;8184;60.256;18.694;2023-04-01T07:08:02;2.10;99.90
16158;DHT22;8184;60.256;18.694;2023-04-01T07:10:35;2.20;99.90
16158;DHT22;8184;60.256;18.694;2023-04-01T07:13:12;2.20;99.90
16158;DHT22;8184;60.256;18.694;2023-04-01T07:15:42;2.20;99.90
16158;DHT22;8184;60.256;18.694;2023-04-01T07:18:14;2.20;99.90
16158;DHT22;8184;60.256;18.694;2023-04-01T07:20:43;2.20;99.90
16158;DHT22;8184;60.256;18.694;2023-04-01T07:23:15;2.20;99.90
16158;DHT22;8184;60.256;18.694;2023-04-01T07:25:47;2.30;99.90
16158;DHT22;8184;60.256;18.694;2023-04-01T07:28:16;2.50;99.90
16158;DHT22;8184;60.256;18.694;2023-04-01T07:30:48;2.40;99.90
16158;DHT22;8184;60.256;18.694;2023-04-01T07:33:19;2.40;99.90
16158;DHT22;8184;60.256;18.694;2023-04-01T07:35:51;2.40;99.90
16158;DHT22;8184;60.256;18.694;2023-04-01T07:38:24;2.50;99.90
16158;DHT22;8184;60.256;18.694;2023-04-01T07:40:57;2.50;99.90
16158;DHT22;8184;60.256;18.694;2023-04-01T07:43:41;2.50;99.90
16158;DHT22;8184;60.256;18.694;2023-04-01T07:46:15;2.70;99.90
16158;DHT22;8184;60.256;18.694;2023-04-01T07:48:47;2.90;99.90
16158;DHT22;8184;60.256;18.694;2023-04-01T07:51:19;3.10;99.90
16158;DHT22;8184;60.256;18.694;2023-04-01T07:53:50;3.10;99.90
16158;DHT22;8184;60.256;18.694;2023-04-01T07:56:23;3.00;99.90
16158;DHT22;8184;60.256;18.694;2023-04-01T07:58:56;2.80;99.90
16158;DHT22;8184;60.256;18.694;2023-04-01T08:01:27;2.70;99.90
16158;DHT22;8184;60.256;18.694;2023-04-01T08:04:04;2.80;99.90
16158;DHT22;8184;60.256;18.694;2023-04-01T08:06:40;2.90;99.90
16158;DHT22;8184;60.256;18.694;2023-04-01T08:09:10;2.90;99.90
16158;DHT22;8184;60.256;18.694;2023-04-01T08:11:48;3.30;99.90
16158;DHT22;8184;60.256;18.694;2023-04-01T08:14:22;3.30;99.90
16158;DHT22;8184;60.256;18.694;2023-04-01T08:16:56;3.10;99.90
16158;DHT22;8184;60.256;18.694;2023-04-01T08:19:30;3.20;99.90
16158;DHT22;8184;60.256;18.694;2023-04-01T08:22:01;3.10;99.90
16158;DHT22;8184;60.256;18.694;2023-04-01T08:24:33;3.20;99.90
16158;DHT22;8184;60.256;18.694;2023-04-01T08:27:16;3.40;99.90
16158;DHT22;8184;60.256;18.694;2023-04-01T08:29:46;3.50;99.90
16158;DHT22;8184;60.256;18.694;2023-04-01T08:32:16;3.40;99.90
16158;DHT22;8184;60.256;18.694;2023-04-01T08:34:47;3.40;99.90
16158;DHT22;8184;60.256;18.694;2023-04-01T08:37:19;3.40;99.90
16158;DHT22;8184;60.256;18.694;2023-04-01T08:39:49;3.60;99.90
16158;DHT22;8184;60.256;18.694;2023-04-01T08:45:17;3.70;99.90
16158;DHT22;8184;60.256;18.694;2023-04-01T08:53:30;4.00;99.90
16158;DHT22;8184;60.256;18.694;2023-04-01T08:56:05;4.00;99.90
16158;DHT22;8184;60.256;18.694;2023-04-01T09:01:41;4.00;99.90
16158;DHT22;8184;60.256;18.694;2023-04-01T09:04:25;4.20;99.90
16158;DHT22;8184;60.256;18.694;2023-04-01T09:07:00;3.90;99.90
16158;DHT22;8184;60.256;18.694;2023-04-01T09:09:46;3.90;99.90
16158;DHT22;8184;60.256;18.694;2023-04-01T09:12:21;4.10;99.90
16158;DHT22;8184;60.256;18.694;2023-04-01T09:14:57;3.80;99.90
16158;DHT22;8184;60.256;18.694;2023-04-01T09:17:46;3.80;99.90
16158;DHT22;8184;60.256;18.694;2023-04-01T09:20:23;3.80;99.90
16158;DHT22;8184;60.256;18.694;2023-04-01T09:22:57;3.90;99.90
16158;DHT22;8184;60.256;18.694;2023-04-01T09:25:38;3.90;99.90
16158;DHT22;8184;60.256;18.694;2023-04-01T09:28:16;4.20;99.90
16158;DHT22;8184;60.256;18.694;2023-04-01T09:31:00;3.80;99.90
16158;DHT22;8184;60.256;18.694;2023-04-01T09:33:46;3.80;99.90
16158;DHT22;8184;60.256;18.694;2023-04-01T09:36:26;3.80;99.90
16158;DHT22;8184;60.256;18.694;2023-04-01T09:38:58;3.60;99.90
16158;DHT22;8184;60.256;18.694;2023-04-01T09:41:30;3.80;99.90
16158;DHT22;8184;60.256;18.694;2023-04-01T09:44:00;3.80;99.90
16158;DHT22;8184;60.256;18.694;2023-04-01T09:46:42;3.90;99.90
16158;DHT22;8184;60.256;18.694;2023-04-01T09:49:22;3.80;99.90
16158;DHT22;8184;60.256;18.694;2023-04-01T09:51:58;3.30;99.90
16158;DHT22;8184;60.256;18.694;2023-04-01T09:54:44;3.30;99.90
16158;DHT22;8184;60.256;18.694;2023-04-01T09:57:21;3.30;99.90
16158;DHT22;8184;60.256;18.694;2023-04-01T10:03:02;3.30;99.90
16158;DHT22;8184;60.256;18.694;2023-04-01T10:08:49;3.50;99.90
16158;DHT22;8184;60.256;18.694;2023-04-01T10:11:29;3.30;99.90
16158;DHT22;8184;60.256;18.694;2023-04-01T10:16:57;3.10;99.90
16158;DHT22;8184;60.256;18.694;2023-04-01T10:22:20;3.00;99.90
16158;DHT22;8184;60.256;18.694;2023-04-01T10:25:01;3.00;99.90
16158;DHT22;8184;60.256;18.694;2023-04-01T10:39:03;3.20;99.90
16158;DHT22;8184;60.256;18.694;2023-04-01T10:41:48;3.10;99.90
16158;DHT22;8184;60.256;18.694;2023-04-01T10:47:26;3.00;99.90
16158;DHT22;8184;60.256;18.694;2023-04-01T10:50:11;3.00;99.90
16158;DHT22;8184;60.256;18.694;2023-04-01T10:55:53;3.00;99.90
16158;DHT22;8184;60.256;18.694;2023-04-01T10:58:38;3.20;99.90
16158;DHT22;8184;60.256;18.694;2023-04-01T11:01:35;3.10;99.90
16158;DHT22;8184;60.256;18.694;2023-04-01T11:04:35;2.90;99.90
16158;DHT22;8184;60.256;18.694;2023-04-01T11:10:20;2.90;99.90
16158;DHT22;8184;60.256;18.694;2023-04-01T11:15:42;3.10;99.90
16158;DHT22;8184;60.256;18.694;2023-04-01T11:24:16;3.10;99.90
16158;DHT22;8184;60.256;18.694;2023-04-01T11:26:51;3.20;99.90
16158;DHT22;8184;60.256;18.694;2023-04-01T11:29:39;4.00;99.90
16158;DHT22;8184;60.256;18.694;2023-04-01T11:32:28;3.60;99.90
16158;DHT22;8184;60.256;18.694;2023-04-01T11:35:00;3.40;99.90
16158;DHT22;8184;60.256;18.694;2023-04-01T11:37:37;3.10;99.90
16158;DHT22;8184;60.256;18.694;2023-04-01T11:40:11;3.10;99.90
16158;DHT22;8184;60.256;18.694;2023-04-01T11:42:43;3.80;99.90
16158;DHT22;8184;60.256;18.694;2023-04-01T11:45:22;3.50;99.90
16158;DHT22;8184;60.256;18.694;2023-04-01T11:47:56;3.40;99.90
16158;DHT22;8184;60.256;18.694;2023-04-01T11:50:31;3.40;99.90
16158;DHT22;8184;60.256;18.694;2023-04-01T11:55:55;3.50;99.90
16158;DHT22;8184;60.256;18.694;2023-04-01T11:58:31;3.70;99.90
16158;DHT22;8184;60.256;18.694;2023-04-01T12:01:10;3.30;99.90
16158;DHT22;8184;60.256;18.694;2023-04-01T12:03:46;3.30;99.90
16158;DHT22;8184;60.256;18.694;2023-04-01T12:06:20;3.70;99.90
16158;DHT22;8184;60.256;18.694;2023-04-01T12:08:54;3.70;99.90
16158;DHT22;8184;60.256;18.694;2023-04-01T12:11:29;3.60;99.90
16158;DHT22;8184;60.256;18.694;2023-04-01T12:14:05;3.80;99.90
16158;DHT22;8184;60.256;18.694;2023-04-01T12:16:45;3.70;99.90
16158;DHT22;8184;60.256;18.694;2023-04-01T12:19:20;3.30;99.90
16158;DHT22;8184;60.256;18.694;2023-04-01T12:21:54;3.80;99.90
16158;DHT22;8184;60.256;18.694;2023-04-01T12:24:29;4.40;99.90
16158;DHT22;8184;60.256;18.694;2023-04-01T12:27:05;4.60;99.90
16158;DHT22;8184;60.256;18.694;2023-04-01T12:29:54;4.80;99.90
16158;DHT22;8184;60.256;18.694;2023-04-01T12:32:29;4.90;99.90
16158;DHT22;8184;60.256;18.694;2023-04-01T12:35:03;4.50;99.90
16158;DHT22;8184;60.256;18.694;2023-04-01T12:37:35;4.60;99.90
16158;DHT22;8184;60.256;18.694;2023-04-01T12:40:17;4.60;99.90
16158;DHT22;8184;60.256;18.694;2023-04-01T12:42:50;4.40;99.90
16158;DHT22;8184;60.256;18.694;2023-04-01T12:45:27;3.90;99.90
16158;DHT22;8184;60.256;18.694;2023-04-01T12:48:02;4.00;99.90
16158;DHT22;8184;60.256;18.694;2023-04-01T12:50:48;4.00;99.90
16158;DHT22;8184;60.256;18.694;2023-04-01T12:53:39;4.30;99.90
16158;DHT22;8184;60.256;18.694;2023-04-01T12:56:12;3.50;99.90
16158;DHT22;8184;60.256;18.694;2023-04-01T12:58:58;4.10;99.90
16158;DHT22;8184;60.256;18.694;2023-04-01T13:01:29;3.50;99.90
16158;DHT22;8184;60.256;18.694;2023-04-01T13:06:49;3.60;99.90
16158;DHT22;8184;60.256;18.694;2023-04-01T13:09:26;4.10;99.90
16158;DHT22;8184;60.256;18.694;2023-04-01T13:12:03;3.50;99.90
16158;DHT22;8184;60.256;18.694;2023-04-01T13:14:50;3.50;99.90
16158;DHT22;8184;60.256;18.694;2023-04-01T13:17:21;3.10;99.90
16158;DHT22;8184;60.256;18.694;2023-04-01T13:19:52;3.50;99.90
16158;DHT22;8184;60.256;18.694;2023-04-01T13:22:35;3.60;99.90
16158;DHT22;8184;60.256;18.694;2023-04-01T13:25:09;2.90;99.90
16158;DHT22;8184;60.256;18.694;2023-04-01T13:27:42;3.30;99.90
16158;DHT22;8184;60.256;18.694;2023-04-01T13:30:18;3.50;99.90
16158;DHT22;8184;60.256;18.694;2023-04-01T13:32:50;3.30;99.90
16158;DHT22;8184;60.256;18.694;2023-04-01T13:35:25;3.40;99.90
16158;DHT22;8184;60.256;18.694;2023-04-01T13:38:00;3.10;99.90
16158;DHT22;8184;60.256;18.694;2023-04-01T13:40:36;3.40;99.90
16158;DHT22;8184;60.256;18.694;2023-04-01T13:43:22;3.70;99.90
16158;DHT22;8184;60.256;18.694;2023-04-01T13:46:05;3.80;99.90
16158;DHT22;8184;60.256;18.694;2023-04-01T13:48:54;3.30;99.90
16158;DHT22;8184;60.256;18.694;2023-04-01T13:51:30;3.30;99.90
16158;DHT22;8184;60.256;18.694;2023-04-01T13:54:09;3.60;99.90
16158;DHT22;8184;60.256;18.694;2023-04-01T13:56:42;3.00;99.90
16158;DHT22;8184;60.256;18.694;2023-04-01T14:01:57;3.40;99.90
16158;DHT22;8184;60.256;18.694;2023-04-01T14:04:38;3.50;99.90
16158;DHT22;8184;60.256;18.694;2023-04-01T14:07:14;3.70;99.90
16158;DHT22;8184;60.256;18.694;2023-04-01T14:09:48;3.80;99.90
16158;DHT22;8184;60.256;18.694;2023-04-01T14:12:24;3.00;99.90
16158;DHT22;8184;60.256;18.694;2023-04-01T14:14:58;3.10;99.90
16158;DHT22;8184;60.256;18.694;2023-04-01T14:17:31;3.70;99.90
16158;DHT22;8184;60.256;18.694;2023-04-01T14:20:14;3.20;99.90
16158;DHT22;8184;60.256;18.694;2023-04-01T14:22:48;3.70;99.90
16158;DHT22;8184;60.256;18.694;2023-04-01T14:25:25;3.50;99.90
16158;DHT22;8184;60.256;18.694;2023-04-01T14:27:58;3.30;99.90
16158;DHT22;8184;60.256;18.694;2023-04-01T14:30:34;3.20;99.90
16158;DHT22;8184;60.256;18.694;2023-04-01T14:33:05;3.20;99.90
16158;DHT22;8184;60.256;18.694;2023-04-01T14:35:41;3.30;99.90
16158;DHT22;8184;60.256;18.694;2023-04-01T14:38:23;3.20;99.90
16158;DHT22;8184;60.256;18.694;2023-04-01T14:40:55;3.20;99.90
16158;DHT22;8184;60.256;18.694;2023-04-01T14:43:28;3.30;99.90
16158;DHT22;8184;60.256;18.694;2023-04-01T14:46:06;3.50;99.90
16158;DHT22;8184;60.256;18.694;2023-04-01T14:48:37;3.50;99.90
16158;DHT22;8184;60.256;18.694;2023-04-01T14:51:09;3.30;99.90
16158;DHT22;8184;60.256;18.694;2023-04-01T14:53:42;3.00;99.90
16158;DHT22;8184;60.256;18.694;2023-04-01T14:56:13;3.30;99.90
16158;DHT22;8184;60.256;18.694;2023-04-01T14:59:07;3.30;99.90
16158;DHT22;8184;60.256;18.694;2023-04-01T15:01:37;3.60;99.90
16158;DHT22;8184;60.256;18.694;2023-04-01T15:04:17;3.20;99.90
16158;DHT22;8184;60.256;18.694;2023-04-01T15:06:56;3.10;99.90
16158;DHT22;8184;60.256;18.694;2023-04-01T15:09:30;3.30;99.90
16158;DHT22;8184;60.256;18.694;2023-04-01T15:12:07;3.00;99.90
16158;DHT22;8184;60.256;18.694;2023-04-01T15:14:42;2.60;99.90
16158;DHT22;8184;60.256;18.694;2023-04-01T15:17:18;3.10;99.90
16158;DHT22;8184;60.256;18.694;2023-04-01T15:19:55;2.80;99.90
16158;DHT22;8184;60.256;18.694;2023-04-01T15:22:38;3.20;99.90
16158;DHT22;8184;60.256;18.694;2023-04-01T15:25:17;3.00;99.90
16158;DHT22;8184;60.256;18.694;2023-04-01T15:27:49;3.20;99.90
16158;DHT22;8184;60.256;18.694;2023-04-01T15:35:50;2.50;99.90
16158;DHT22;8184;60.256;18.694;2023-04-01T15:38:25;2.30;99.90
16158;DHT22;8184;60.256;18.694;2023-04-01T15:40:57;2.80;99.90
16158;DHT22;8184;60.256;18.694;2023-04-01T15:43:30;2.70;99.90
16158;DHT22;8184;60.256;18.694;2023-04-01T15:46:09;2.80;99.90
16158;DHT22;8184;60.256;18.694;2023-04-01T15:48:49;2.70;99.90
16158;DHT22;8184;60.256;18.694;2023-04-01T15:51:22;2.70;99.90
16158;DHT22;8184;60.256;18.694;2023-04-01T15:54:01;2.60;99.90
16158;DHT22;8184;60.256;18.694;2023-04-01T15:56:47;2.20;99.90
16158;DHT22;8184;60.256;18.694;2023-04-01T15:59:22;2.50;99.90
16158;DHT22;8184;60.256;18.694;2023-04-01T16:01:57;2.50;99.90
16158;DHT22;8184;60.256;18.694;2023-04-01T16:04:38;2.60;99.90
16158;DHT22;8184;60.256;18.694;2023-04-01T16:07:10;2.30;99.90
16158;DHT22;8184;60.256;18.694;2023-04-01T16:09:51;2.30;99.90
16158;DHT22;8184;60.256;18.694;2023-04-01T16:12:28;1.80;99.90
16158;DHT22;8184;60.256;18.694;2023-04-01T16:15:06;2.10;99.90
16158;DHT22;8184;60.256;18.694;2023-04-01T16:17:45;2.00;99.90
16158;DHT22;8184;60.256;18.694;2023-04-01T16:20:17;2.10;99.90
16158;DHT22;8184;60.256;18.694;2023-04-01T16:22:49;2.20;99.90
16158;DHT22;8184;60.256;18.694;2023-04-01T16:25:32;2.20;99.90
16158;DHT22;8184;60.256;18.694;2023-04-01T16:28:16;1.90;99.90
16158;DHT22;8184;60.256;18.694;2023-04-01T16:30:50;2.10;99.90
16158;DHT22;8184;60.256;18.694;2023-04-01T16:33:24;2.00;99.90
16158;DHT22;8184;60.256;18.694;2023-04-01T16:35:57;1.50;99.90
16158;DHT22;8184;60.256;18.694;2023-04-01T16:38:31;1.40;99.90
16158;DHT22;8184;60.256;18.694;2023-04-01T16:41:05;1.60;99.90
16158;DHT22;8184;60.256;18.694;2023-04-01T16:43:38;1.80;99.90
16158;DHT22;8184;60.256;18.694;2023-04-01T16:46:15;1.50;99.90
16158;DHT22;8184;60.256;18.694;2023-04-01T16:48:50;1.30;99.90
16158;DHT22;8184;60.256;18.694;2023-04-01T16:51:22;1.40;99.90
16158;DHT22;8184;60.256;18.694;2023-04-01T16:53:52;1.20;99.90
16158;DHT22;8184;60.256;18.694;2023-04-01T16:56:28;1.10;99.90
16158;DHT22;8184;60.256;18.694;2023-04-01T16:59:07;1.20;99.90
16158;DHT22;8184;60.256;18.694;2023-04-01T17:01:43;1.10;99.90
16158;DHT22;8184;60.256;18.694;2023-04-01T17:04:14;1.30;99.90
16158;DHT22;8184;60.256;18.694;2023-04-01T17:06:49;1.20;99.90
16158;DHT22;8184;60.256;18.694;2023-04-01T17:09:23;0.90;99.90
16158;DHT22;8184;60.256;18.694;2023-04-01T17:11:54;0.90;99.90
16158;DHT22;8184;60.256;18.694;2023-04-01T17:14:26;0.80;99.90
16158;DHT22;8184;60.256;18.694;2023-04-01T17:17:08;0.70;99.90
16158;DHT22;8184;60.256;18.694;2023-04-01T17:19:45;0.80;99.90
16158;DHT22;8184;60.256;18.694;2023-04-01T17:22:19;0.70;99.90
16158;DHT22;8184;60.256;18.694;2023-04-01T17:24:51;0.80;99.90
16158;DHT22;8184;60.256;18.694;2023-04-01T17:27:25;0.90;99.90
16158;DHT22;8184;60.256;18.694;2023-04-01T17:30:05;0.80;99.90